Time;durP1;ratioP1;P1;durP2;ratioP2;P2;SDS_P1;SDS_P2;PMS_P1;PMS_P2;Temp;Humidity;BMP_temperature;BMP_pressure;BME280_temperature;BME280_humidity;BME280_pressure;Samples;Min_cycle;Max_cycle;Signal;HPM_P1;HPM_P2
2021/09/24 00:01:36;;;;;;;8.20;3.15;;;20.20;79.10;;;;;;5032176;28;20056;-76
2021/09/24 00:04:01;;;;;;;6.53;3.25;;;20.20;79.30;;;;;;5032439;28;20048;-75
2021/09/24 00:06:27;;;;;;;8.13;3.17;;;20.20;79.20;;;;;;5031050;28;20017;-75
2021/09/24 00:08:52;;;;;;;7.88;3.28;;;20.20;79.30;;;;;;5031025;28;20017;-75
2021/09/24 00:11:18;;;;;;;8.40;2.95;;;20.20;79.20;;;;;;5030843;28;20057;-75
2021/09/24 00:13:43;;;;;;;8.60;3.40;;;20.10;79.00;;;;;;5030993;28;20087;-75
2021/09/24 00:16:09;;;;;;;6.82;2.70;;;20.10;78.60;;;;;;5062840;22;20053;-77
2021/09/24 00:18:35;;;;;;;6.70;3.20;;;20.10;78.40;;;;;;5034386;28;20021;-76
2021/09/24 00:21:00;;;;;;;7.38;2.92;;;20.10;78.50;;;;;;5050416;28;20017;-76
2021/09/24 00:23:26;;;;;;;6.18;2.70;;;20.00;78.60;;;;;;5033983;28;20017;-77
2021/09/24 00:25:51;;;;;;;8.57;3.25;;;20.10;78.50;;;;;;5052179;28;20051;-76
2021/09/24 00:28:17;;;;;;;6.15;2.50;;;20.10;78.50;;;;;;5052022;28;20071;-77
2021/09/24 00:30:42;;;;;;;7.05;3.00;;;20.10;78.60;;;;;;5033880;28;20068;-77
2021/09/24 00:33:08;;;;;;;7.13;2.92;;;20.10;78.60;;;;;;5034287;28;20029;-77
2021/09/24 00:35:34;;;;;;;6.55;3.05;;;20.10;78.90;;;;;;5034210;28;20028;-77
2021/09/24 00:37:59;;;;;;;6.35;2.83;;;20.10;78.90;;;;;;5051965;28;20474;-78
2021/09/24 00:40:25;;;;;;;7.10;2.95;;;20.10;78.90;;;;;;5033995;28;20116;-76
2021/09/24 00:42:51;;;;;;;9.88;3.17;;;20.00;78.90;;;;;;5034076;28;20060;-77
2021/09/24 00:45:16;;;;;;;6.72;2.40;;;20.00;78.80;;;;;;5034061;28;20021;-77
2021/09/24 00:47:42;;;;;;;7.20;2.78;;;20.00;78.90;;;;;;5034001;28;20368;-77
2021/09/24 00:50:08;;;;;;;8.55;3.00;;;20.00;78.90;;;;;;5033991;28;20119;-77
2021/09/24 00:52:34;;;;;;;6.70;2.60;;;20.00;78.80;;;;;;5051587;28;20032;-78
2021/09/24 00:55:00;;;;;;;6.35;2.38;;;20.00;78.70;;;;;;5033814;28;20394;-76
2021/09/24 00:57:26;;;;;;;6.57;2.70;;;20.00;78.60;;;;;;5033966;28;20507;-76
2021/09/24 00:59:52;;;;;;;5.80;2.47;;;20.10;79.40;;;;;;5051778;28;20469;-77
2021/09/24 01:02:18;;;;;;;6.45;2.50;;;20.00;78.60;;;;;;5033700;28;20116;-77
2021/09/24 01:04:44;;;;;;;7.47;2.55;;;20.00;78.60;;;;;;5055301;28;20445;-78
2021/09/24 01:07:12;;;;;;;6.50;2.50;;;20.00;78.60;;;;;;5055723;28;20107;-78
2021/09/24 01:09:38;;;;;;;5.95;2.60;;;20.00;78.60;;;;;;5037924;28;20079;-77
2021/09/24 01:12:04;;;;;;;6.68;2.42;;;20.00;78.60;;;;;;5037503;28;20029;-77
2021/09/24 01:14:31;;;;;;;5.13;2.42;;;20.00;78.60;;;;;;5055483;28;20028;-77
2021/09/24 01:16:58;;;;;;;6.82;2.60;;;20.00;78.80;;;;;;5055313;28;20037;-77
2021/09/24 01:19:23;;;;;;;7.25;2.75;;;19.90;78.50;;;;;;5055479;28;20021;-77
2021/09/24 01:21:50;;;;;;;5.90;2.17;;;19.90;78.60;;;;;;5037425;28;20029;-77
2021/09/24 01:24:16;;;;;;;8.23;2.70;;;19.90;78.50;;;;;;5037005;28;20072;-77
2021/09/24 01:26:49;;;;;;;7.07;2.47;;;19.90;78.60;;;;;;5055281;28;20078;-77
2021/09/24 01:29:16;;;;;;;4.82;2.20;;;19.90;78.70;;;;;;5037556;28;20081;-76
2021/09/24 01:31:42;;;;;;;6.10;2.35;;;19.90;78.60;;;;;;5055059;28;20064;-77
2021/09/24 01:34:08;;;;;;;6.05;2.38;;;19.90;78.60;;;;;;5037360;28;20036;-77
2021/09/24 01:36:33;;;;;;;5.43;2.40;;;19.90;78.70;;;;;;5037273;28;20033;-76
2021/09/24 01:39:07;;;;;;;6.07;2.13;;;20.00;78.80;;;;;;5037457;28;20068;-76
2021/09/24 01:41:33;;;;;;;7.35;2.70;;;19.90;78.60;;;;;;5036837;28;20178;-77
2021/09/24 01:43:59;;;;;;;7.57;2.65;;;19.90;78.90;;;;;;5037219;28;20071;-77
2021/09/24 01:46:24;;;;;;;6.75;2.33;;;19.90;78.90;;;;;;5037134;28;20048;-77
2021/09/24 01:48:50;;;;;;;5.97;2.20;;;19.90;78.70;;;;;;5037149;28;20028;-77
2021/09/24 01:51:15;;;;;;;6.00;2.30;;;19.90;78.90;;;;;;5036724;28;20032;-77
2021/09/24 01:53:41;;;;;;;5.90;2.10;;;19.90;78.60;;;;;;5036955;28;20021;-77
2021/09/24 01:56:07;;;;;;;7.07;2.20;;;19.80;78.70;;;;;;5036768;28;20117;-77
2021/09/24 01:58:32;;;;;;;7.88;2.60;;;19.80;79.00;;;;;;5054615;28;20415;-76
2021/09/24 02:00:58;;;;;;;7.30;2.20;;;19.90;79.00;;;;;;5036542;28;20061;-76
2021/09/24 02:03:23;;;;;;;6.15;2.20;;;19.80;79.20;;;;;;5036735;28;20033;-78
2021/09/24 02:05:49;;;;;;;5.82;2.20;;;19.80;78.90;;;;;;5054607;28;20044;-76
2021/09/24 02:08:14;;;;;;;7.40;2.60;;;19.80;78.90;;;;;;5036699;28;20099;-76
2021/09/24 02:10:40;;;;;;;5.68;2.20;;;19.80;78.70;;;;;;5054097;28;20021;-76
2021/09/24 02:13:05;;;;;;;5.10;1.88;;;19.80;78.80;;;;;;5036560;28;20116;-77
2021/09/24 02:15:31;;;;;;;4.93;1.98;;;19.80;79.10;;;;;;5053766;28;20075;-77
2021/09/24 02:17:56;;;;;;;5.57;2.28;;;19.80;78.90;;;;;;5036667;28;20478;-77
2021/09/24 02:20:22;;;;;;;5.15;2.17;;;19.80;78.80;;;;;;5054251;28;20053;-77
2021/09/24 02:22:48;;;;;;;4.82;2.00;;;19.80;78.80;;;;;;5053579;28;20051;-77
2021/09/24 02:25:13;;;;;;;5.53;2.00;;;19.80;79.20;;;;;;5036489;28;20036;-77
2021/09/24 02:27:39;;;;;;;5.57;2.17;;;19.80;78.70;;;;;;5036301;28;20028;-77
2021/09/24 02:30:06;;;;;;;4.70;1.88;;;19.80;78.70;;;;;;5036312;28;20016;-77
2021/09/24 02:32:32;;;;;;;5.38;2.10;;;19.80;78.70;;;;;;5036019;28;20024;-77
2021/09/24 02:34:57;;;;;;;6.68;2.03;;;19.80;78.80;;;;;;5036353;28;20028;-77
2021/09/24 02:37:23;;;;;;;5.50;2.20;;;19.80;78.80;;;;;;5036047;28;20024;-77
2021/09/24 02:39:49;;;;;;;7.50;2.10;;;19.80;78.70;;;;;;5036195;28;20478;-77
2021/09/24 02:42:14;;;;;;;3.90;1.83;;;19.80;78.50;;;;;;5035669;28;20025;-77
2021/09/24 02:44:40;;;;;;;6.40;2.17;;;19.80;78.60;;;;;;5036155;28;20028;-77
2021/09/24 02:47:08;;;;;;;5.85;2.00;;;19.80;78.80;;;;;;5053768;28;20024;-77
2021/09/24 02:49:37;;;;;;;6.93;2.17;;;19.80;78.80;;;;;;5035919;28;20028;-77
2021/09/24 02:52:06;;;;;;;5.28;2.00;;;19.80;78.60;;;;;;5035577;28;20052;-77
2021/09/24 02:54:31;;;;;;;5.00;1.73;;;19.80;79.00;;;;;;5049421;28;20071;-77
2021/09/24 02:56:57;;;;;;;5.05;2.05;;;19.80;78.80;;;;;;5026724;28;20049;-77
2021/09/24 02:59:23;;;;;;;5.35;1.88;;;19.80;78.70;;;;;;5053377;28;20021;-76
2021/09/24 03:01:48;;;;;;;6.53;1.88;;;19.80;78.80;;;;;;5053347;28;20037;-76
2021/09/24 03:04:14;;;;;;;5.53;2.08;;;19.80;79.00;;;;;;5053577;28;20390;-76
2021/09/24 03:06:40;;;;;;;6.00;1.92;;;19.80;78.90;;;;;;5035636;28;20059;-77
2021/09/24 03:09:06;;;;;;;4.75;2.05;;;19.80;78.80;;;;;;5053454;28;20017;-76
2021/09/24 03:11:31;;;;;;;5.80;2.38;;;19.70;78.60;;;;;;5035349;28;20036;-77
2021/09/24 03:13:57;;;;;;;5.55;1.80;;;19.70;78.50;;;;;;5053329;28;20025;-77
2021/09/24 03:16:22;;;;;;;5.40;1.80;;;19.70;78.80;;;;;;5035297;28;20037;-77
2021/09/24 03:18:48;;;;;;;4.60;1.60;;;19.70;78.90;;;;;;5035356;28;20094;-77
2021/09/24 03:21:14;;;;;;;6.00;2.03;;;19.70;78.70;;;;;;5034980;28;20040;-76
2021/09/24 03:23:39;;;;;;;5.70;1.80;;;19.70;78.70;;;;;;5052674;28;20021;-77
2021/09/24 03:26:05;;;;;;;6.15;1.88;;;19.70;78.50;;;;;;5034310;28;20029;-76
2021/09/24 03:28:31;;;;;;;6.18;1.90;;;19.70;78.60;;;;;;5035249;28;20025;-76
2021/09/24 03:30:56;;;;;;;5.80;1.92;;;19.80;78.50;;;;;;5034799;28;20025;-76
2021/09/24 03:33:22;;;;;;;5.30;1.92;;;19.70;78.70;;;;;;5052855;28;20032;-77
2021/09/24 03:35:47;;;;;;;6.35;1.70;;;19.70;78.60;;;;;;5052883;28;20025;-76
2021/09/24 03:38:13;;;;;;;5.82;1.92;;;19.70;78.60;;;;;;5052861;28;20212;-76
2021/09/24 03:40:39;;;;;;;5.20;1.70;;;19.70;78.70;;;;;;5052588;28;20025;-76
2021/09/24 03:43:04;;;;;;;5.63;2.08;;;19.70;78.40;;;;;;5052659;28;20090;-76
2021/09/24 03:45:30;;;;;;;4.70;1.80;;;19.70;78.50;;;;;;5034848;28;20082;-77
2021/09/24 03:47:56;;;;;;;5.28;1.85;;;19.70;78.70;;;;;;5052701;28;20509;-77
2021/09/24 03:50:24;;;;;;;3.75;1.58;;;19.70;78.70;;;;;;5052372;28;20025;-77
2021/09/24 03:52:50;;;;;;;4.13;1.80;;;19.70;78.60;;;;;;5052591;28;20605;-77
2021/09/24 03:55:16;;;;;;;5.75;1.77;;;19.70;78.70;;;;;;5052530;28;20417;-76
2021/09/24 03:57:41;;;;;;;6.13;1.80;;;19.70;78.80;;;;;;5052560;28;20029;-77
2021/09/24 04:00:08;;;;;;;5.18;2.15;;;19.70;78.60;;;;;;5052451;28;20458;-77
2021/09/24 04:02:33;;;;;;;4.63;2.08;;;19.70;78.60;;;;;;5052249;28;20393;-77
2021/09/24 04:04:58;;;;;;;4.10;1.80;;;19.70;79.10;;;;;;5052395;28;20055;-76
2021/09/24 04:07:24;;;;;;;7.13;1.75;;;19.70;78.70;;;;;;5034518;28;20117;-77
2021/09/24 04:09:49;;;;;;;4.28;1.67;;;19.70;78.80;;;;;;5034633;28;20497;-77
2021/09/24 04:12:15;;;;;;;5.65;1.77;;;19.70;78.40;;;;;;5034313;28;20469;-77
2021/09/24 04:14:40;;;;;;;6.40;1.77;;;19.70;78.90;;;;;;5034469;28;20033;-78
2021/09/24 04:17:06;;;;;;;6.18;2.35;;;19.70;78.50;;;;;;5052060;28;20091;-76
2021/09/24 04:19:32;;;;;;;7.13;2.25;;;19.70;78.70;;;;;;5034318;28;20071;-77
2021/09/24 04:21:57;;;;;;;3.85;1.80;;;19.70;79.00;;;;;;5051881;28;20021;-77
2021/09/24 04:24:23;;;;;;;5.20;2.15;;;19.70;78.90;;;;;;5051556;28;20032;-77
2021/09/24 04:26:48;;;;;;;4.32;1.80;;;19.70;79.00;;;;;;5034173;28;20016;-77
2021/09/24 04:29:14;;;;;;;5.95;2.13;;;19.70;78.60;;;;;;5052083;28;20028;-77
2021/09/24 04:31:39;;;;;;;5.35;1.58;;;19.70;78.60;;;;;;5051849;28;20375;-77
2021/09/24 04:34:05;;;;;;;6.57;1.77;;;19.70;78.50;;;;;;5034180;28;20025;-77
2021/09/24 04:36:31;;;;;;;3.85;1.83;;;19.60;78.50;;;;;;5034021;28;20032;-77
2021/09/24 04:38:57;;;;;;;4.85;1.73;;;19.60;78.40;;;;;;5051723;28;20021;-77
2021/09/24 04:41:23;;;;;;;5.10;1.52;;;19.60;78.40;;;;;;5034137;28;20440;-76
2021/09/24 04:43:48;;;;;;;5.28;1.90;;;19.60;78.50;;;;;;5051992;28;20029;-77
2021/09/24 04:46:14;;;;;;;5.43;1.88;;;19.60;78.60;;;;;;5051774;28;20029;-77
2021/09/24 04:48:39;;;;;;;4.85;2.00;;;19.70;78.50;;;;;;5034212;28;20071;-77
2021/09/24 04:51:05;;;;;;;4.03;1.70;;;19.60;79.20;;;;;;5051774;28;20025;-77
2021/09/24 04:53:31;;;;;;;5.20;1.85;;;19.60;78.50;;;;;;5051761;28;20478;-77
2021/09/24 04:55:56;;;;;;;6.68;2.03;;;19.60;78.50;;;;;;5049586;28;20029;-75
2021/09/24 04:58:22;;;;;;;5.45;1.90;;;19.70;78.60;;;;;;5033699;28;20482;-76
2021/09/24 05:00:49;;;;;;;5.28;1.77;;;19.60;78.60;;;;;;5051406;28;20462;-76
2021/09/24 05:03:15;;;;;;;5.68;1.98;;;19.70;78.60;;;;;;5051667;28;20367;-77
2021/09/24 05:05:41;;;;;;;6.07;1.95;;;19.60;78.50;;;;;;5032540;28;20021;-76
2021/09/24 05:08:06;;;;;;;5.53;1.90;;;19.60;78.70;;;;;;5051500;28;20037;-76
2021/09/24 05:10:32;;;;;;;3.50;1.65;;;19.60;78.90;;;;;;5033515;28;20399;-77
2021/09/24 05:12:58;;;;;;;5.72;1.90;;;19.60;78.50;;;;;;5033839;28;20021;-75
2021/09/24 05:15:24;;;;;;;6.10;2.10;;;19.60;78.50;;;;;;5033557;28;20028;-76
2021/09/24 05:17:49;;;;;;;5.18;1.95;;;19.60;79.10;;;;;;5033711;28;20033;-76
2021/09/24 05:20:15;;;;;;;6.63;1.95;;;19.60;78.80;;;;;;5033689;28;20025;-77
2021/09/24 05:22:41;;;;;;;4.53;2.00;;;19.60;78.70;;;;;;5050656;28;20033;-74
2021/09/24 05:25:07;;;;;;;6.18;2.03;;;19.60;78.60;;;;;;5051308;28;20025;-76
2021/09/24 05:27:33;;;;;;;4.13;1.80;;;19.60;78.90;;;;;;5033598;28;20116;-77
2021/09/24 05:29:58;;;;;;;6.32;1.92;;;19.70;78.50;;;;;;5033647;28;20075;-77
2021/09/24 05:32:24;;;;;;;3.30;1.50;;;19.60;78.50;;;;;;5033415;28;20029;-76
2021/09/24 05:34:49;;;;;;;6.00;2.00;;;19.60;78.50;;;;;;5051381;28;20051;-76
2021/09/24 05:37:15;;;;;;;4.45;2.03;;;19.60;78.70;;;;;;5033362;28;20025;-75
2021/09/24 05:39:42;;;;;;;6.15;1.65;;;19.60;78.60;;;;;;5051374;28;20033;-75
2021/09/24 05:42:09;;;;;;;5.68;1.90;;;19.70;79.10;;;;;;5048075;28;20025;-75
2021/09/24 05:44:34;;;;;;;6.82;1.90;;;19.70;79.20;;;;;;5039186;28;20032;-74
2021/09/24 05:47:00;;;;;;;7.70;1.90;;;19.70;78.90;;;;;;5029687;28;20028;-76
2021/09/24 05:49:29;;;;;;;7.80;1.90;;;19.70;78.90;;;;;;5030690;28;20040;-76
2021/09/24 05:51:56;;;;;;;7.60;1.90;;;19.70;78.70;;;;;;5051177;28;20017;-76
2021/09/24 05:54:22;;;;;;;8.13;2.00;;;19.70;78.60;;;;;;5050995;28;20017;-76
2021/09/24 05:56:47;;;;;;;5.22;2.03;;;19.70;78.60;;;;;;5051523;28;20036;-76
2021/09/24 05:59:13;;;;;;;6.97;2.13;;;19.70;78.30;;;;;;5033297;28;20025;-75
2021/09/24 06:01:38;;;;;;;5.63;1.63;;;19.70;78.20;;;;;;5033179;28;20032;-76
2021/09/24 06:04:04;;;;;;;4.68;1.83;;;19.70;78.40;;;;;;5033452;28;20394;-75
2021/09/24 06:06:30;;;;;;;5.32;2.00;;;19.70;78.20;;;;;;5033445;28;20025;-76
2021/09/24 06:08:55;;;;;;;6.70;1.88;;;19.70;78.40;;;;;;5050938;28;20021;-75
2021/09/24 06:11:21;;;;;;;8.15;2.15;;;19.70;78.40;;;;;;5032910;28;20031;-77
2021/09/24 06:13:46;;;;;;;5.93;1.90;;;19.70;78.40;;;;;;5033636;28;20025;-76
2021/09/24 06:16:12;;;;;;;5.63;2.15;;;19.70;78.30;;;;;;5032917;28;20402;-77
2021/09/24 06:18:38;;;;;;;6.38;2.10;;;19.70;78.40;;;;;;5032221;28;20021;-77
2021/09/24 06:21:04;;;;;;;5.70;1.83;;;19.70;78.50;;;;;;5031746;28;20017;-76
2021/09/24 06:23:30;;;;;;;5.32;1.90;;;19.70;78.60;;;;;;5032628;28;20544;-78
2021/09/24 06:25:58;;;;;;;6.68;2.08;;;19.70;78.70;;;;;;5032300;28;20509;-76
2021/09/24 06:28:25;;;;;;;8.20;1.98;;;19.70;78.70;;;;;;5032960;28;20025;-75
2021/09/24 06:30:50;;;;;;;8.18;1.92;;;19.70;78.20;;;;;;5050160;28;20356;-76
2021/09/24 06:33:16;;;;;;;4.78;2.03;;;19.70;78.20;;;;;;5032619;28;20082;-75
2021/09/24 06:35:41;;;;;;;7.43;2.28;;;19.60;78.30;;;;;;5032651;28;20036;-77
2021/09/24 06:38:07;;;;;;;5.25;1.80;;;19.70;78.40;;;;;;5032116;28;20032;-75
2021/09/24 06:40:33;;;;;;;5.35;2.25;;;19.60;78.40;;;;;;5032196;28;20774;-75
2021/09/24 06:42:58;;;;;;;8.57;2.92;;;19.60;78.50;;;;;;5032188;28;20029;-74
2021/09/24 06:45:24;;;;;;;8.35;1.90;;;19.60;78.50;;;;;;5027686;28;20623;-76
2021/09/24 06:47:50;;;;;;;6.68;2.20;;;19.60;79.30;;;;;;5034218;28;20024;-76
2021/09/24 06:50:15;;;;;;;7.45;1.95;;;19.70;79.00;;;;;;5071048;28;20483;-79
2021/09/24 06:52:42;;;;;;;5.63;1.73;;;19.70;79.50;;;;;;5056700;28;20390;-76
2021/09/24 06:55:08;;;;;;;7.53;2.20;;;19.80;79.80;;;;;;5049588;28;20401;-77
2021/09/24 06:57:34;;;;;;;6.72;2.00;;;19.80;79.40;;;;;;5031951;28;20057;-75
2021/09/24 06:59:59;;;;;;;8.75;2.45;;;19.80;79.20;;;;;;5049281;28;20040;-76
2021/09/24 07:02:25;;;;;;;6.97;2.10;;;19.80;79.50;;;;;;5030911;28;20025;-76
2021/09/24 07:04:51;;;;;;;7.95;2.20;;;19.80;79.30;;;;;;5061190;28;20109;-76
2021/09/24 07:07:16;;;;;;;6.75;2.38;;;19.80;79.40;;;;;;5067975;28;20032;-76
2021/09/24 07:09:42;;;;;;;6.28;2.65;;;19.80;79.20;;;;;;5049865;28;20210;-74
2021/09/24 07:12:07;;;;;;;5.75;2.08;;;19.80;79.10;;;;;;5049041;28;20024;-77
2021/09/24 07:14:33;;;;;;;4.82;2.08;;;19.80;78.70;;;;;;5067143;28;20852;-77
2021/09/24 07:16:59;;;;;;;7.15;2.30;;;19.70;79.20;;;;;;5048773;28;20040;-78
2021/09/24 07:19:26;;;;;;;5.57;1.90;;;19.70;79.10;;;;;;5050161;28;20127;-76
2021/09/24 07:21:52;;;;;;;6.05;2.00;;;19.70;78.70;;;;;;5049886;28;20036;-76
2021/09/24 07:24:18;;;;;;;7.00;2.03;;;19.70;78.70;;;;;;5050165;28;20067;-76
2021/09/24 07:26:44;;;;;;;4.95;1.90;;;19.60;78.80;;;;;;5049924;28;20479;-77
2021/09/24 07:29:10;;;;;;;7.05;2.13;;;19.60;78.90;;;;;;5049653;28;20031;-76
2021/09/24 07:31:35;;;;;;;6.13;2.15;;;19.60;78.70;;;;;;5067211;28;20036;-77
2021/09/24 07:34:01;;;;;;;6.38;2.20;;;19.70;79.00;;;;;;5049600;28;20036;-77
2021/09/24 07:36:27;;;;;;;5.53;1.85;;;19.60;78.50;;;;;;5067604;28;20104;-76
2021/09/24 07:38:53;;;;;;;7.32;2.28;;;19.70;79.10;;;;;;5049702;28;20028;-76
2021/09/24 07:41:20;;;;;;;4.57;2.30;;;19.60;79.20;;;;;;5049344;28;20040;-78
2021/09/24 07:43:49;;;;;;;5.20;2.08;;;19.60;79.20;;;;;;5049388;28;20063;-75
2021/09/24 07:46:15;;;;;;;5.15;1.95;;;19.70;79.10;;;;;;5067694;28;20023;-75
2021/09/24 07:48:42;;;;;;;5.25;2.28;;;19.70;78.70;;;;;;5040916;28;20029;-76
2021/09/24 07:51:09;;;;;;;6.22;2.33;;;19.60;79.00;;;;;;5034332;28;20109;-76
2021/09/24 07:53:34;;;;;;;5.07;2.40;;;19.70;79.10;;;;;;5030463;28;20036;-77
2021/09/24 07:56:00;;;;;;;7.53;2.20;;;19.70;79.30;;;;;;5062726;28;20040;-76
2021/09/24 07:58:25;;;;;;;6.80;1.95;;;19.70;79.20;;;;;;5049855;28;20032;-76
2021/09/24 08:00:51;;;;;;;7.40;2.05;;;19.80;79.20;;;;;;5068199;28;20028;-77
2021/09/24 08:03:16;;;;;;;5.40;2.15;;;19.70;79.40;;;;;;5050500;28;20075;-77
2021/09/24 08:05:42;;;;;;;6.03;2.28;;;19.70;79.20;;;;;;5050108;28;20025;-78
2021/09/24 08:08:07;;;;;;;8.13;2.05;;;19.70;79.20;;;;;;5049387;28;20087;-77
2021/09/24 08:10:33;;;;;;;6.38;2.25;;;19.70;79.30;;;;;;5067547;28;20401;-76
2021/09/24 08:12:59;;;;;;;5.25;1.98;;;19.70;78.90;;;;;;5048780;28;20036;-74
2021/09/24 08:15:24;;;;;;;6.88;2.13;;;19.70;78.70;;;;;;5166862;22;20047;-76
2021/09/24 08:17:52;;;;;;;10.48;2.80;;;19.80;79.10;;;;;;5018220;28;20491;-77
2021/09/24 08:20:18;;;;;;;5.03;2.05;;;19.70;79.00;;;;;;5022474;28;20025;-76
2021/09/24 08:22:44;;;;;;;4.80;2.13;;;19.70;78.70;;;;;;5031243;28;20029;-77
2021/09/24 08:25:13;;;;;;;7.30;2.20;;;19.70;78.90;;;;;;5032557;28;20113;-77
2021/09/24 08:27:40;;;;;;;6.13;2.42;;;19.70;78.90;;;;;;5031228;28;20030;-75
2021/09/24 08:30:08;;;;;;;4.75;2.13;;;19.70;79.40;;;;;;5031189;28;20018;-77
2021/09/24 08:32:36;;;;;;;6.10;2.45;;;19.70;78.80;;;;;;5031932;28;20034;-77
2021/09/24 08:35:03;;;;;;;8.98;2.67;;;19.80;78.60;;;;;;5030894;28;20056;-76
2021/09/24 08:37:29;;;;;;;7.60;3.00;;;19.80;78.70;;;;;;5032505;28;20021;-76
2021/09/24 08:39:55;;;;;;;8.30;3.25;;;19.80;79.20;;;;;;5032495;28;20028;-77
2021/09/24 08:42:20;;;;;;;7.75;2.60;;;19.70;79.10;;;;;;5032115;28;20030;-75
2021/09/24 08:44:49;;;;;;;7.00;2.70;;;19.70;78.50;;;;;;5032385;28;20017;-76
2021/09/24 08:47:15;;;;;;;5.60;2.58;;;19.70;78.70;;;;;;5032166;28;20067;-76
2021/09/24 08:49:41;;;;;;;6.22;2.92;;;19.70;78.60;;;;;;5030929;28;20079;-76
2021/09/24 08:52:06;;;;;;;6.30;2.58;;;19.70;78.60;;;;;;5031940;28;20052;-75
2021/09/24 08:54:32;;;;;;;7.30;3.20;;;19.70;78.40;;;;;;5032037;28;20033;-75
2021/09/24 08:56:57;;;;;;;6.18;2.88;;;19.70;78.70;;;;;;5032278;28;20383;-75
2021/09/24 08:59:23;;;;;;;5.80;2.90;;;19.70;78.50;;;;;;5031184;28;20033;-75
2021/09/24 09:02:04;;;;;;;5.53;2.80;;;19.70;78.30;;;;;;5030889;28;20018;-75
2021/09/24 09:04:33;;;;;;;;;;;19.60;78.30;;;;;;5032666;28;20101;-75
2021/09/24 09:07:07;;;;;;;7.45;3.17;;;19.70;78.60;;;;;;5031154;28;19905;-75
2021/09/24 09:09:35;;;;;;;6.38;3.05;;;19.70;78.40;;;;;;5031950;28;20028;-75
2021/09/24 09:12:16;;;;;;;6.97;3.38;;;19.70;78.40;;;;;;5030744;28;20549;-77
2021/09/24 09:15:01;;;;;;;6.95;3.30;;;19.70;78.40;;;;;;5031944;28;20115;-77
2021/09/24 09:17:35;;;;;;;7.60;3.50;;;19.70;78.10;;;;;;5031325;28;20387;-77
2021/09/24 09:20:08;;;;;;;6.65;3.47;;;19.70;78.10;;;;;;5030819;28;20033;-77
2021/09/24 09:22:33;;;;;;;5.68;3.53;;;19.70;78.20;;;;;;5030532;28;20171;-76
2021/09/24 09:24:59;;;;;;;6.65;3.50;;;19.70;78.20;;;;;;5032830;28;20075;-77
2021/09/24 09:27:27;;;;;;;8.02;3.70;;;19.70;78.30;;;;;;5034603;28;20041;-77
2021/09/24 09:30:11;;;;;;;6.68;3.75;;;19.70;78.10;;;;;;5035919;28;20028;-78
2021/09/24 09:32:42;;;;;;;7.72;3.92;;;19.70;78.20;;;;;;5035332;28;20033;-73
2021/09/24 09:35:08;;;;;;;7.70;4.13;;;19.80;78.10;;;;;;5035824;28;20108;-77
2021/09/24 09:37:36;;;;;;;7.43;4.00;;;19.80;77.90;;;;;;5034427;28;20033;-79
2021/09/24 09:40:04;;;;;;;9.48;4.28;;;19.80;78.00;;;;;;5035507;28;20056;-75
2021/09/24 09:42:34;;;;;;;8.23;4.60;;;19.80;78.40;;;;;;5035155;28;20124;-76
2021/09/24 09:45:00;;;;;;;10.13;4.50;;;19.70;78.20;;;;;;5034068;28;20025;-77
2021/09/24 09:47:35;;;;;;;8.00;4.45;;;19.80;78.20;;;;;;5034154;28;20504;-76
2021/09/24 09:50:05;;;;;;;7.80;4.22;;;19.80;78.40;;;;;;5034070;28;20149;-78
2021/09/24 09:52:32;;;;;;;9.30;4.22;;;19.80;78.70;;;;;;5033753;28;20040;-75
2021/09/24 09:55:03;;;;;;;7.53;4.25;;;19.80;78.40;;;;;;5034148;28;20033;-76
2021/09/24 09:57:33;;;;;;;9.43;4.68;;;19.80;78.20;;;;;;5034034;28;20057;-80
2021/09/24 09:59:58;;;;;;;10.93;4.68;;;19.80;78.60;;;;;;5035142;28;20029;-75
2021/09/24 10:02:29;;;;;;;8.73;4.60;;;19.80;78.20;;;;;;5033393;28;20509;-75
2021/09/24 10:04:57;;;;;;;9.65;4.35;;;19.80;78.20;;;;;;5035026;28;20075;-76
2021/09/24 10:07:27;;;;;;;7.68;4.32;;;19.80;78.30;;;;;;5034937;28;20507;-76
2021/09/24 10:10:13;;;;;;;8.32;4.05;;;19.70;78.20;;;;;;5033478;28;20483;-75
2021/09/24 10:12:41;;;;;;;7.85;4.30;;;19.70;78.20;;;;;;5033555;28;20036;-77
2021/09/24 10:15:09;;;;;;;9.57;4.55;;;19.80;78.10;;;;;;5033470;28;20068;-75
2021/09/24 10:17:35;;;;;;;8.48;4.45;;;19.70;78.10;;;;;;5033502;28;20108;-75
2021/09/24 10:20:02;;;;;;;7.72;4.50;;;19.80;78.10;;;;;;5033488;28;20029;-75
2021/09/24 10:22:28;;;;;;;8.10;4.30;;;19.70;78.10;;;;;;5033111;28;20494;-75
2021/09/24 10:24:55;;;;;;;8.75;4.80;;;19.70;78.10;;;;;;5033225;28;20057;-75
2021/09/24 10:27:38;;;;;;;7.85;4.85;;;19.70;78.10;;;;;;5033142;28;20026;-75
2021/09/24 10:30:18;;;;;;;8.25;4.80;;;19.70;78.20;;;;;;5034486;28;20443;-75
2021/09/24 10:33:15;;;;;;;8.07;4.68;;;19.70;78.20;;;;;;5033062;28;20026;-75
2021/09/24 10:35:50;;;;;;;8.43;5.30;;;19.70;78.40;;;;;;5020932;28;20076;-76
2021/09/24 10:38:20;;;;;;;7.82;4.97;;;19.70;78.30;;;;;;5033211;28;20056;-74
2021/09/24 10:41:03;;;;;;;8.68;5.20;;;19.70;78.40;;;;;;5032996;28;20095;-75
2021/09/24 10:43:45;;;;;;;8.70;4.78;;;19.70;78.40;;;;;;5034350;28;20033;-76
2021/09/24 10:46:37;;;;;;;7.22;4.65;;;19.70;78.40;;;;;;5033039;28;20018;-75
2021/09/24 10:49:16;;;;;;;9.10;4.72;;;19.60;78.40;;;;;;5033073;28;20032;-75
2021/09/24 10:52:00;;;;;;;8.98;5.25;;;19.70;78.50;;;;;;5033912;28;20014;-76
2021/09/24 10:54:26;;;;;;;8.65;5.10;;;19.60;78.40;;;;;;5032662;28;20017;-75
2021/09/24 10:57:06;;;;;;;8.05;4.80;;;19.70;78.60;;;;;;5034027;28;20028;-75
2021/09/24 10:59:34;;;;;;;9.57;4.82;;;19.60;78.60;;;;;;5032807;28;20030;-76
2021/09/24 11:02:20;;;;;;;8.65;4.97;;;19.60;78.60;;;;;;5032374;28;20087;-76
2021/09/24 11:04:48;;;;;;;9.70;5.07;;;19.60;78.70;;;;;;5032394;28;20057;-75
2021/09/24 11:07:30;;;;;;;8.73;5.32;;;19.60;78.70;;;;;;5021409;28;20451;-76
2021/09/24 11:09:56;;;;;;;9.52;5.60;;;19.60;78.70;;;;;;5013657;28;20022;-75
2021/09/24 11:12:22;;;;;;;10.40;5.97;;;19.60;78.90;;;;;;5013380;28;20071;-76
2021/09/24 11:15:10;;;;;;;9.70;5.22;;;19.60;78.80;;;;;;5012202;28;20087;-75
2021/09/24 11:17:46;;;;;;;9.52;5.45;;;19.60;78.80;;;;;;5013530;28;20018;-77
2021/09/24 11:20:30;;;;;;;9.45;5.85;;;19.60;78.90;;;;;;5012561;28;20026;-74
2021/09/24 11:22:56;;;;;;;9.15;5.18;;;19.60;78.90;;;;;;5013642;28;20440;-76
2021/09/24 11:25:22;;;;;;;13.38;5.78;;;19.60;79.10;;;;;;5012441;28;20014;-74
2021/09/24 11:27:48;;;;;;;12.85;5.47;;;19.60;79.60;;;;;;5012310;28;20079;-76
2021/09/24 11:30:17;;;;;;;12.63;5.88;;;19.60;79.50;;;;;;5012294;28;20033;-72
2021/09/24 11:32:52;;;;;;;11.25;6.22;;;19.70;79.60;;;;;;5012138;28;20054;-75
2021/09/24 11:35:29;;;;;;;14.05;5.43;;;19.70;79.00;;;;;;5013458;28;20426;-75
2021/09/24 11:38:14;;;;;;;13.48;6.30;;;19.70;79.80;;;;;;5030695;28;20038;-75
2021/09/24 11:40:46;;;;;;;12.13;6.25;;;19.70;79.60;;;;;;5045176;28;20209;-75
2021/09/24 11:43:14;;;;;;;9.93;6.30;;;19.70;79.60;;;;;;5013388;28;20030;-75
2021/09/24 11:45:42;;;;;;;9.35;5.47;;;19.70;79.10;;;;;;5013313;28;20049;-76
2021/09/24 11:48:09;;;;;;;8.75;5.68;;;19.70;79.20;;;;;;5044042;28;20391;-75
2021/09/24 11:50:36;;;;;;;10.18;5.70;;;19.70;79.20;;;;;;5012797;28;20022;-75
2021/09/24 11:53:05;;;;;;;10.38;5.70;;;19.60;79.00;;;;;;5044929;28;20061;-76
2021/09/24 11:55:38;;;;;;;10.57;5.40;;;19.70;79.40;;;;;;5012041;28;20387;-75
2021/09/24 11:58:05;;;;;;;8.27;4.95;;;19.70;79.10;;;;;;5013088;28;20033;-76
2021/09/24 12:00:32;;;;;;;9.57;5.63;;;19.70;79.00;;;;;;5012827;28;20022;-75
2021/09/24 12:03:10;;;;;;;9.50;5.68;;;19.70;79.00;;;;;;5013008;28;20030;-76
2021/09/24 12:05:37;;;;;;;11.13;5.43;;;19.70;79.10;;;;;;5013056;28;20018;-75
2021/09/24 12:08:11;;;;;;;9.60;5.70;;;19.70;79.00;;;;;;5021995;28;20451;-76
2021/09/24 12:10:36;;;;;;;8.80;5.53;;;19.70;78.90;;;;;;5031044;28;20091;-76
2021/09/24 12:13:14;;;;;;;9.07;5.28;;;19.70;78.90;;;;;;5031325;28;20120;-77
2021/09/24 12:15:53;;;;;;;11.57;5.65;;;19.70;79.00;;;;;;5031002;28;20037;-75
2021/09/24 12:18:23;;;;;;;8.55;5.65;;;19.70;78.90;;;;;;5031908;28;20368;-76
2021/09/24 12:20:59;;;;;;;9.82;5.60;;;19.70;78.90;;;;;;5030921;28;20029;-75
2021/09/24 12:23:25;;;;;;;9.00;5.80;;;19.70;79.10;;;;;;5031167;28;20022;-74
2021/09/24 12:25:58;;;;;;;10.43;5.65;;;19.70;78.80;;;;;;5030999;28;20030;-76
2021/09/24 12:28:24;;;;;;;9.82;6.22;;;19.70;79.70;;;;;;5031128;28;20033;-76
2021/09/24 12:30:50;;;;;;;14.60;5.90;;;19.70;79.50;;;;;;5031998;28;20505;-75
2021/09/24 12:33:15;;;;;;;10.52;5.60;;;19.70;79.40;;;;;;5032272;28;20442;-75
2021/09/24 12:35:54;;;;;;;9.55;5.82;;;19.70;79.10;;;;;;5032089;28;20041;-75
2021/09/24 12:38:30;;;;;;;12.00;5.10;;;19.70;79.20;;;;;;5032196;28;20037;-75
2021/09/24 12:41:05;;;;;;;10.52;5.30;;;19.70;79.00;;;;;;5030087;28;20079;-78
2021/09/24 12:43:32;;;;;;;9.82;5.85;;;19.60;79.00;;;;;;5030214;28;20451;-77
2021/09/24 12:45:58;;;;;;;10.10;5.50;;;19.60;79.00;;;;;;5030470;28;20423;-76
2021/09/24 12:48:24;;;;;;;11.50;6.13;;;19.60;78.90;;;;;;5030684;28;20021;-77